AFL127 UUEE-UACC
Flight info
| Callsign | AFL127 |
|---|---|
| Flight time | 2h 44m |
| Altitude | 39000 |
| Route | KOGOM3J KOGOM L94 EKPIR M864 INKEB L94 UNORO T788 NAMUD L994 DIDAL DIDAL1D |
| Aircraft | B77W/H-SDE1E2E3FGHIJ2J3J4J5M1RWXY/LB1D1 |
Departure
| Time | 2026-04-26 06:26 |
|---|---|
| Airport | Sheremetyevo International Airport (UUEE) |
Arrival
| Time | 2026-04-26 09:10 |
|---|---|
| Airport | Nursultan Nazarbayev International Airport (UACC) |
| Time | Latitude | Longitude | Altitude | Speed | Heading |
|---|---|---|---|---|---|
| 2026-04-26 05:56 | 55.97927 | 37.41227 | 644 ft | 0 kts | 255° |
| 2026-04-26 06:14 | 55.97929 | 37.41243 | 644 ft | 2 kts | 258° |
| 2026-04-26 06:15 | 55.97932 | 37.41269 | 644 ft | 2 kts | 257° |
| 2026-04-26 06:15 | 55.97936 | 37.41295 | 644 ft | 2 kts | 254° |
| 2026-04-26 06:15 | 55.97939 | 37.41311 | 644 ft | 2 kts | 250° |
| 2026-04-26 06:15 | 55.97946 | 37.41333 | 644 ft | 2 kts | 220° |
| 2026-04-26 06:16 | 55.97958 | 37.41347 | 644 ft | 2 kts | 197° |
| 2026-04-26 06:16 | 55.97973 | 37.41351 | 644 ft | 2 kts | 173° |
| 2026-04-26 06:16 | 55.97980 | 37.41348 | 644 ft | 1 kts | 163° |
| 2026-04-26 06:16 | 55.97982 | 37.41347 | 644 ft | 0 kts | 164° |
| 2026-04-26 06:19 | 55.97981 | 37.41347 | 643 ft | 0 kts | 164° |
| 2026-04-26 06:19 | 55.97963 | 37.41357 | 643 ft | 6 kts | 163° |
| 2026-04-26 06:19 | 55.97903 | 37.41387 | 644 ft | 10 kts | 164° |
| 2026-04-26 06:19 | 55.97816 | 37.41429 | 644 ft | 14 kts | 165° |
| 2026-04-26 06:20 | 55.97711 | 37.41488 | 644 ft | 16 kts | 148° |
| 2026-04-26 06:20 | 55.97631 | 37.41613 | 644 ft | 14 kts | 136° |
| 2026-04-26 06:20 | 55.97623 | 37.41771 | 644 ft | 13 kts | 76° |
| 2026-04-26 06:20 | 55.97648 | 37.41937 | 644 ft | 13 kts | 72° |
| 2026-04-26 06:21 | 55.97673 | 37.42102 | 644 ft | 14 kts | 76° |
| 2026-04-26 06:21 | 55.97697 | 37.42273 | 644 ft | 14 kts | 74° |
| 2026-04-26 06:21 | 55.97725 | 37.42460 | 644 ft | 16 kts | 75° |
| 2026-04-26 06:21 | 55.97755 | 37.42658 | 644 ft | 16 kts | 74° |
| 2026-04-26 06:22 | 55.97784 | 37.42852 | 644 ft | 16 kts | 75° |
| 2026-04-26 06:22 | 55.97812 | 37.43042 | 644 ft | 15 kts | 73° |
| 2026-04-26 06:22 | 55.97842 | 37.43236 | 644 ft | 17 kts | 75° |
| 2026-04-26 06:22 | 55.97875 | 37.43459 | 644 ft | 19 kts | 76° |
| 2026-04-26 06:23 | 55.97910 | 37.43689 | 644 ft | 18 kts | 75° |
| 2026-04-26 06:23 | 55.97934 | 37.43854 | 644 ft | 8 kts | 75° |
| 2026-04-26 06:23 | 55.97945 | 37.43957 | 644 ft | 8 kts | 96° |
| 2026-04-26 06:23 | 55.97914 | 37.44025 | 644 ft | 6 kts | 153° |
| 2026-04-26 06:24 | 55.97855 | 37.44062 | 644 ft | 11 kts | 163° |
| 2026-04-26 06:24 | 55.97767 | 37.44105 | 644 ft | 14 kts | 165° |
| 2026-04-26 06:24 | 55.97655 | 37.44153 | 644 ft | 18 kts | 167° |
| 2026-04-26 06:24 | 55.97547 | 37.44142 | 644 ft | 15 kts | 233° |
| 2026-04-26 06:25 | 55.97523 | 37.44030 | 644 ft | 0 kts | 254° |
| 2026-04-26 06:25 | 55.97490 | 37.43821 | 644 ft | 57 kts | 254° |
| 2026-04-26 06:25 | 55.97315 | 37.42619 | 644 ft | 140 kts | 252° |
| 2026-04-26 06:26 | 55.97013 | 37.40737 | 1226 ft | 166 kts | 250° |
| 2026-04-26 06:26 | 55.96738 | 37.38902 | 2392 ft | 145 kts | 251° |
| 2026-04-26 06:26 | 55.96487 | 37.37044 | 2633 ft | 166 kts | 247° |
| 2026-04-26 06:26 | 55.95888 | 37.35258 | 3087 ft | 176 kts | 233° |
| 2026-04-26 06:27 | 55.95143 | 37.33433 | 3587 ft | 190 kts | 232° |
| 2026-04-26 06:27 | 55.94353 | 37.31529 | 4217 ft | 199 kts | 233° |
| 2026-04-26 06:27 | 55.93518 | 37.29411 | 4700 ft | 216 kts | 235° |
| 2026-04-26 06:27 | 55.92645 | 37.27148 | 5204 ft | 233 kts | 235° |
| 2026-04-26 06:28 | 55.91716 | 37.24737 | 5996 ft | 238 kts | 235° |
| 2026-04-26 06:28 | 55.90701 | 37.22446 | 6742 ft | 241 kts | 223° |
| 2026-04-26 06:28 | 55.89259 | 37.20930 | 6945 ft | 247 kts | 200° |
| 2026-04-26 06:28 | 55.87472 | 37.20694 | 7259 ft | 270 kts | 173° |
| 2026-04-26 06:29 | 55.85762 | 37.22045 | 8140 ft | 280 kts | 147° |
| 2026-04-26 06:29 | 55.84445 | 37.24710 | 8806 ft | 295 kts | 123° |
| 2026-04-26 06:29 | 55.83823 | 37.28220 | 9091 ft | 314 kts | 95° |
| 2026-04-26 06:29 | 55.84189 | 37.32006 | 9990 ft | 315 kts | 66° |
| 2026-04-26 06:30 | 55.85428 | 37.35146 | 10783 ft | 316 kts | 41° |
| 2026-04-26 06:30 | 55.87051 | 37.37870 | 11321 ft | 325 kts | 51° |
| 2026-04-26 06:30 | 55.88089 | 37.41383 | 11412 ft | 324 kts | 77° |
| 2026-04-26 06:30 | 55.88206 | 37.45295 | 11418 ft | 317 kts | 102° |
| 2026-04-26 06:31 | 55.87784 | 37.49128 | 11478 ft | 324 kts | 106° |
| 2026-04-26 06:31 | 55.87288 | 37.53073 | 12427 ft | 324 kts | 107° |
| 2026-04-26 06:31 | 55.86792 | 37.56981 | 13195 ft | 327 kts | 107° |
| 2026-04-26 06:31 | 55.86290 | 37.60928 | 13415 ft | 327 kts | 107° |
| 2026-04-26 06:32 | 55.85793 | 37.64830 | 13435 ft | 325 kts | 108° |
| 2026-04-26 06:32 | 55.85292 | 37.68744 | 13432 ft | 325 kts | 108° |
| 2026-04-26 06:32 | 55.84786 | 37.72697 | 13427 ft | 324 kts | 108° |
| 2026-04-26 06:32 | 55.84277 | 37.76638 | 13482 ft | 340 kts | 108° |
| 2026-04-26 06:33 | 55.83738 | 37.80789 | 14196 ft | 352 kts | 108° |
| 2026-04-26 06:33 | 55.83189 | 37.85031 | 15107 ft | 355 kts | 108° |
| 2026-04-26 06:33 | 55.82634 | 37.89314 | 15423 ft | 359 kts | 108° |
| 2026-04-26 06:33 | 55.82058 | 37.93731 | 16060 ft | 373 kts | 108° |
| 2026-04-26 06:34 | 55.81490 | 37.98116 | 17392 ft | 368 kts | 108° |
| 2026-04-26 06:34 | 55.80919 | 38.02497 | 18185 ft | 371 kts | 108° |
| 2026-04-26 06:34 | 55.80331 | 38.06992 | 18424 ft | 374 kts | 108° |
| 2026-04-26 06:34 | 55.79778 | 38.11491 | 18427 ft | 374 kts | 103° |
| 2026-04-26 06:35 | 55.79657 | 38.16111 | 18449 ft | 377 kts | 93° |
| 2026-04-26 06:35 | 55.79748 | 38.20735 | 18447 ft | 382 kts | 92° |
| 2026-04-26 06:35 | 55.79856 | 38.25492 | 18455 ft | 382 kts | 92° |
| 2026-04-26 06:35 | 55.79961 | 38.30189 | 18452 ft | 381 kts | 92° |
| 2026-04-26 06:36 | 55.80062 | 38.34862 | 18449 ft | 381 kts | 92° |
| 2026-04-26 06:36 | 55.80210 | 38.39577 | 18464 ft | 383 kts | 86° |
| 2026-04-26 06:36 | 55.80739 | 38.44336 | 18588 ft | 410 kts | 76° |
| 2026-04-26 06:36 | 55.81611 | 38.49258 | 19118 ft | 428 kts | 73° |
| 2026-04-26 06:37 | 55.82554 | 38.54375 | 19817 ft | 440 kts | 74° |
| 2026-04-26 06:37 | 55.83501 | 38.59566 | 20540 ft | 451 kts | 74° |
| 2026-04-26 06:37 | 55.84467 | 38.64908 | 21118 ft | 465 kts | 74° |
| 2026-04-26 06:37 | 55.85481 | 38.70443 | 21601 ft | 481 kts | 72° |
| 2026-04-26 06:38 | 55.86824 | 38.75944 | 22322 ft | 492 kts | 66° |
| 2026-04-26 06:38 | 55.88303 | 38.81477 | 23114 ft | 499 kts | 66° |
| 2026-04-26 06:38 | 55.89801 | 38.87075 | 23870 ft | 506 kts | 66° |
| 2026-04-26 06:38 | 55.91312 | 38.92734 | 24640 ft | 513 kts | 66° |
| 2026-04-26 06:39 | 55.92855 | 38.98542 | 25376 ft | 520 kts | 66° |
| 2026-04-26 06:39 | 55.94391 | 39.04344 | 26090 ft | 527 kts | 66° |
| 2026-04-26 06:39 | 55.95733 | 39.10453 | 26826 ft | 530 kts | 75° |
| 2026-04-26 06:39 | 55.96578 | 39.16866 | 27515 ft | 533 kts | 84° |
| 2026-04-26 06:40 | 55.97016 | 39.23442 | 28190 ft | 537 kts | 88° |
| 2026-04-26 06:40 | 55.97368 | 39.30028 | 28928 ft | 542 kts | 88° |
| 2026-04-26 06:40 | 55.97717 | 39.36716 | 29892 ft | 541 kts | 89° |
| 2026-04-26 06:40 | 55.98061 | 39.43334 | 30928 ft | 538 kts | 89° |
| 2026-04-26 06:41 | 55.98406 | 39.50049 | 31794 ft | 536 kts | 88° |
| 2026-04-26 06:41 | 55.98741 | 39.56615 | 32628 ft | 533 kts | 88° |
| 2026-04-26 06:41 | 55.99265 | 39.63157 | 33246 ft | 535 kts | 80° |
| 2026-04-26 06:41 | 56.00283 | 39.69613 | 33794 ft | 536 kts | 74° |
| 2026-04-26 06:42 | 56.01197 | 39.76101 | 34206 ft | 536 kts | 83° |
| 2026-04-26 06:42 | 56.01739 | 39.82727 | 34661 ft | 535 kts | 86° |
| 2026-04-26 06:42 | 56.02139 | 39.89298 | 35177 ft | 531 kts | 88° |
| 2026-04-26 06:42 | 56.02453 | 39.95824 | 35738 ft | 524 kts | 88° |
| 2026-04-26 06:43 | 56.02713 | 40.02346 | 36275 ft | 519 kts | 89° |
| 2026-04-26 06:43 | 56.02920 | 40.08666 | 36741 ft | 516 kts | 89° |
| 2026-04-26 06:43 | 56.03097 | 40.15084 | 37116 ft | 514 kts | 89° |
| 2026-04-26 06:43 | 56.03245 | 40.21456 | 37406 ft | 516 kts | 90° |
| 2026-04-26 06:44 | 56.03373 | 40.27905 | 37475 ft | 518 kts | 90° |
| 2026-04-26 06:44 | 56.03579 | 40.40656 | 37507 ft | 514 kts | 90° |
| 2026-04-26 06:45 | 56.03742 | 40.53392 | 37504 ft | 515 kts | 90° |
| 2026-04-26 06:45 | 56.03876 | 40.66282 | 37520 ft | 516 kts | 91° |
| 2026-04-26 06:46 | 56.03987 | 40.78982 | 37533 ft | 515 kts | 91° |
| 2026-04-26 06:46 | 56.04078 | 40.91773 | 37519 ft | 515 kts | 91° |
| 2026-04-26 06:47 | 56.04154 | 41.04583 | 37521 ft | 516 kts | 91° |
| 2026-04-26 06:47 | 56.04215 | 41.17429 | 37524 ft | 515 kts | 91° |
| 2026-04-26 06:48 | 56.04261 | 41.30165 | 37531 ft | 515 kts | 91° |
| 2026-04-26 06:48 | 56.04294 | 41.42882 | 37550 ft | 514 kts | 91° |
| 2026-04-26 06:49 | 56.04314 | 41.55618 | 37547 ft | 514 kts | 91° |
| 2026-04-26 06:49 | 56.04320 | 41.68404 | 37536 ft | 514 kts | 92° |
| 2026-04-26 06:50 | 56.04313 | 41.81181 | 37553 ft | 514 kts | 92° |
| 2026-04-26 06:50 | 56.04293 | 41.93929 | 37542 ft | 514 kts | 92° |
| 2026-04-26 06:51 | 56.04260 | 42.06673 | 37563 ft | 514 kts | 92° |
| 2026-04-26 06:51 | 56.04185 | 42.25891 | 37570 ft | 514 kts | 92° |
| 2026-04-26 06:52 | 56.04119 | 42.38582 | 37570 ft | 515 kts | 92° |
| 2026-04-26 06:52 | 56.04040 | 42.51289 | 37577 ft | 514 kts | 92° |
| 2026-04-26 06:53 | 56.03911 | 42.64104 | 37590 ft | 515 kts | 92° |
| 2026-04-26 06:53 | 56.03745 | 42.76878 | 37593 ft | 515 kts | 93° |
| 2026-04-26 06:54 | 56.03569 | 42.89603 | 37594 ft | 515 kts | 93° |
| 2026-04-26 06:54 | 56.03379 | 43.02364 | 37603 ft | 514 kts | 93° |
| 2026-04-26 06:55 | 56.03179 | 43.15062 | 37596 ft | 514 kts | 93° |
| 2026-04-26 06:55 | 56.02965 | 43.27770 | 37606 ft | 515 kts | 93° |
| 2026-04-26 06:56 | 56.03292 | 43.40525 | 37621 ft | 516 kts | 84° |
| 2026-04-26 06:56 | 56.04168 | 43.53220 | 37605 ft | 515 kts | 83° |
| 2026-04-26 06:57 | 56.05032 | 43.65938 | 37624 ft | 516 kts | 84° |
| 2026-04-26 06:57 | 56.05876 | 43.78605 | 37631 ft | 516 kts | 84° |
| 2026-04-26 06:58 | 56.06707 | 43.91327 | 37633 ft | 515 kts | 84° |
| 2026-04-26 06:58 | 56.07523 | 44.04043 | 37633 ft | 516 kts | 84° |
| 2026-04-26 06:59 | 56.08326 | 44.16762 | 37640 ft | 515 kts | 84° |
| 2026-04-26 06:59 | 56.09112 | 44.29455 | 37650 ft | 515 kts | 84° |
| 2026-04-26 07:00 | 56.09889 | 44.42204 | 37655 ft | 514 kts | 84° |
| 2026-04-26 07:00 | 56.10648 | 44.54881 | 37654 ft | 514 kts | 84° |
| 2026-04-26 07:01 | 56.11196 | 44.67667 | 37654 ft | 513 kts | 92° |
| 2026-04-26 07:01 | 56.10983 | 44.80391 | 37653 ft | 513 kts | 94° |
| 2026-04-26 07:02 | 56.10723 | 44.93100 | 37662 ft | 512 kts | 94° |
| 2026-04-26 07:02 | 56.10445 | 45.05830 | 37677 ft | 512 kts | 94° |
| 2026-04-26 07:03 | 56.10146 | 45.18467 | 37688 ft | 513 kts | 94° |
| 2026-04-26 07:03 | 56.09845 | 45.31155 | 37692 ft | 513 kts | 93° |
| 2026-04-26 07:04 | 56.09530 | 45.43902 | 37686 ft | 514 kts | 94° |
| 2026-04-26 07:04 | 56.09201 | 45.56691 | 37691 ft | 514 kts | 94° |
| 2026-04-26 07:05 | 56.08861 | 45.69381 | 37701 ft | 513 kts | 94° |
| 2026-04-26 07:05 | 56.08507 | 45.82082 | 37693 ft | 513 kts | 94° |
| 2026-04-26 07:06 | 56.08141 | 45.94754 | 37714 ft | 514 kts | 94° |
| 2026-04-26 07:06 | 56.07758 | 46.07544 | 37703 ft | 513 kts | 94° |
| 2026-04-26 07:07 | 56.07365 | 46.20267 | 37712 ft | 513 kts | 94° |
| 2026-04-26 07:07 | 56.06958 | 46.32972 | 37720 ft | 514 kts | 94° |
| 2026-04-26 07:08 | 56.06531 | 46.45669 | 37722 ft | 513 kts | 96° |
| 2026-04-26 07:08 | 56.04927 | 46.58012 | 37741 ft | 510 kts | 111° |
| 2026-04-26 07:09 | 56.02445 | 46.69880 | 37739 ft | 511 kts | 113° |
| 2026-04-26 07:09 | 55.99929 | 46.81679 | 37740 ft | 509 kts | 113° |
| 2026-04-26 07:11 | 55.93563 | 47.11113 | 37754 ft | 510 kts | 114° |
| 2026-04-26 07:11 | 55.90980 | 47.22919 | 37757 ft | 509 kts | 113° |
| 2026-04-26 07:12 | 55.88415 | 47.34573 | 37773 ft | 510 kts | 113° |
| 2026-04-26 07:12 | 55.85811 | 47.46341 | 37766 ft | 510 kts | 113° |
| 2026-04-26 07:13 | 55.83222 | 47.57972 | 37780 ft | 511 kts | 113° |
| 2026-04-26 07:13 | 55.80604 | 47.69669 | 37778 ft | 511 kts | 114° |
| 2026-04-26 07:14 | 55.77966 | 47.81386 | 37778 ft | 510 kts | 114° |
| 2026-04-26 07:14 | 55.75338 | 47.93005 | 37767 ft | 510 kts | 114° |
| 2026-04-26 07:15 | 55.72700 | 48.04601 | 37777 ft | 510 kts | 114° |
| 2026-04-26 07:15 | 55.70042 | 48.16224 | 37791 ft | 511 kts | 114° |
| 2026-04-26 07:16 | 55.67377 | 48.27814 | 37797 ft | 510 kts | 114° |
| 2026-04-26 07:16 | 55.64687 | 48.39448 | 37808 ft | 510 kts | 114° |
| 2026-04-26 07:17 | 55.61989 | 48.51054 | 37809 ft | 511 kts | 114° |
| 2026-04-26 07:17 | 55.59296 | 48.62587 | 37812 ft | 510 kts | 114° |
| 2026-04-26 07:18 | 55.56584 | 48.74144 | 37814 ft | 511 kts | 115° |
| 2026-04-26 07:18 | 55.53863 | 48.85672 | 37825 ft | 510 kts | 115° |
| 2026-04-26 07:19 | 55.51144 | 48.97132 | 37822 ft | 510 kts | 115° |
| 2026-04-26 07:19 | 55.48391 | 49.08673 | 37822 ft | 510 kts | 115° |
| 2026-04-26 07:20 | 55.45653 | 49.20092 | 37824 ft | 510 kts | 115° |
| 2026-04-26 07:20 | 55.42875 | 49.31612 | 37829 ft | 509 kts | 115° |
| 2026-04-26 07:21 | 55.40107 | 49.43038 | 37832 ft | 510 kts | 115° |
| 2026-04-26 07:21 | 55.37319 | 49.54487 | 37830 ft | 511 kts | 115° |
| 2026-04-26 07:22 | 55.34513 | 49.65946 | 37834 ft | 512 kts | 116° |
| 2026-04-26 07:22 | 55.31713 | 49.77328 | 37837 ft | 512 kts | 116° |
| 2026-04-26 07:23 | 55.28878 | 49.88788 | 37850 ft | 513 kts | 116° |
| 2026-04-26 07:23 | 55.26040 | 50.00202 | 37846 ft | 512 kts | 116° |
| 2026-04-26 07:24 | 55.23203 | 50.11548 | 37853 ft | 512 kts | 116° |
| 2026-04-26 07:24 | 55.20352 | 50.22893 | 37864 ft | 511 kts | 116° |
| 2026-04-26 07:25 | 55.17497 | 50.34197 | 37867 ft | 512 kts | 115° |
| 2026-04-26 07:25 | 55.14603 | 50.45597 | 37874 ft | 511 kts | 115° |
| 2026-04-26 07:26 | 55.11733 | 50.56846 | 37872 ft | 511 kts | 115° |
| 2026-04-26 07:26 | 55.08822 | 50.68199 | 37868 ft | 512 kts | 116° |
| 2026-04-26 07:27 | 55.05920 | 50.79459 | 37863 ft | 513 kts | 116° |
| 2026-04-26 07:27 | 55.03198 | 50.90954 | 37864 ft | 514 kts | 110° |
| 2026-04-26 07:28 | 55.00932 | 51.02713 | 37870 ft | 514 kts | 110° |
| 2026-04-26 07:28 | 54.98642 | 51.14392 | 37877 ft | 514 kts | 110° |
| 2026-04-26 07:29 | 54.96304 | 51.26131 | 37883 ft | 513 kts | 110° |
| 2026-04-26 07:29 | 54.93952 | 51.37803 | 37881 ft | 514 kts | 110° |
| 2026-04-26 07:30 | 54.91569 | 51.49522 | 37882 ft | 513 kts | 111° |
| 2026-04-26 07:30 | 54.89186 | 51.61157 | 37883 ft | 514 kts | 111° |
| 2026-04-26 07:31 | 54.86789 | 51.72782 | 37886 ft | 514 kts | 111° |
| 2026-04-26 07:31 | 54.84372 | 51.84433 | 37887 ft | 513 kts | 111° |
| 2026-04-26 07:32 | 54.81949 | 51.96044 | 37889 ft | 511 kts | 111° |
| 2026-04-26 07:32 | 54.79514 | 52.07637 | 37890 ft | 512 kts | 111° |
| 2026-04-26 07:33 | 54.77069 | 52.19212 | 37893 ft | 512 kts | 111° |
| 2026-04-26 07:33 | 54.74608 | 52.30798 | 37885 ft | 514 kts | 111° |
| 2026-04-26 07:34 | 54.72148 | 52.42310 | 37895 ft | 513 kts | 111° |
| 2026-04-26 07:34 | 54.69681 | 52.53793 | 37911 ft | 513 kts | 111° |
| 2026-04-26 07:35 | 54.67188 | 52.65333 | 37908 ft | 513 kts | 112° |
| 2026-04-26 07:35 | 54.64685 | 52.76853 | 37889 ft | 511 kts | 112° |
| 2026-04-26 07:36 | 54.62647 | 52.88635 | 37893 ft | 514 kts | 106° |
| 2026-04-26 07:36 | 54.60825 | 53.00525 | 37894 ft | 514 kts | 106° |
| 2026-04-26 07:37 | 54.59000 | 53.12331 | 37899 ft | 513 kts | 106° |
| 2026-04-26 07:37 | 54.57149 | 53.24191 | 37906 ft | 514 kts | 106° |
| 2026-04-26 07:38 | 54.55291 | 53.36001 | 37904 ft | 514 kts | 106° |
| 2026-04-26 07:38 | 54.53415 | 53.47828 | 37915 ft | 514 kts | 106° |
| 2026-04-26 07:39 | 54.51526 | 53.59658 | 37911 ft | 515 kts | 106° |
| 2026-04-26 07:39 | 54.49625 | 53.71479 | 37909 ft | 514 kts | 107° |
| 2026-04-26 07:40 | 54.47719 | 53.83241 | 37902 ft | 514 kts | 107° |
| 2026-04-26 07:40 | 54.45796 | 53.95029 | 37904 ft | 514 kts | 107° |
| 2026-04-26 07:41 | 54.43852 | 54.06863 | 37912 ft | 514 kts | 107° |
| 2026-04-26 07:41 | 54.41921 | 54.18543 | 37906 ft | 513 kts | 107° |
| 2026-04-26 07:42 | 54.39952 | 54.30365 | 37896 ft | 515 kts | 107° |
| 2026-04-26 07:42 | 54.37980 | 54.42126 | 37902 ft | 514 kts | 107° |
| 2026-04-26 07:43 | 54.36010 | 54.53794 | 37904 ft | 516 kts | 107° |
| 2026-04-26 07:43 | 54.34008 | 54.65578 | 37915 ft | 514 kts | 108° |
| 2026-04-26 07:44 | 54.32001 | 54.77305 | 37918 ft | 514 kts | 108° |
| 2026-04-26 07:44 | 54.29984 | 54.89021 | 37916 ft | 513 kts | 108° |
| 2026-04-26 07:45 | 54.27974 | 55.00613 | 37933 ft | 513 kts | 108° |
| 2026-04-26 07:45 | 54.25944 | 55.12248 | 37928 ft | 512 kts | 108° |
| 2026-04-26 07:46 | 54.23890 | 55.23942 | 37926 ft | 514 kts | 108° |
| 2026-04-26 07:46 | 54.21836 | 55.35564 | 37931 ft | 513 kts | 108° |
| 2026-04-26 07:47 | 54.19773 | 55.47156 | 37930 ft | 512 kts | 108° |
| 2026-04-26 07:47 | 54.17689 | 55.58810 | 37935 ft | 514 kts | 108° |
| 2026-04-26 07:48 | 54.15599 | 55.70422 | 37929 ft | 513 kts | 109° |
| 2026-04-26 07:48 | 54.13506 | 55.81981 | 37929 ft | 513 kts | 109° |
| 2026-04-26 07:49 | 54.11396 | 55.93561 | 37941 ft | 513 kts | 109° |
| 2026-04-26 07:49 | 54.09280 | 56.05097 | 37934 ft | 512 kts | 109° |
| 2026-04-26 07:50 | 54.06077 | 56.22424 | 37934 ft | 513 kts | 109° |
| 2026-04-26 07:50 | 54.03936 | 56.33920 | 37925 ft | 513 kts | 109° |
| 2026-04-26 07:51 | 54.01763 | 56.45515 | 37928 ft | 515 kts | 109° |
| 2026-04-26 07:51 | 53.99598 | 56.56998 | 37910 ft | 514 kts | 109° |
| 2026-04-26 07:52 | 53.97400 | 56.68579 | 37919 ft | 515 kts | 110° |
| 2026-04-26 07:52 | 53.95368 | 56.80119 | 37911 ft | 516 kts | 104° |
| 2026-04-26 07:53 | 53.93754 | 56.91989 | 37905 ft | 515 kts | 104° |
| 2026-04-26 07:53 | 53.92118 | 57.03800 | 37906 ft | 517 kts | 104° |
| 2026-04-26 07:54 | 53.90446 | 57.15639 | 37902 ft | 516 kts | 104° |
| 2026-04-26 07:54 | 53.88760 | 57.27408 | 37891 ft | 516 kts | 105° |
| 2026-04-26 07:55 | 53.87055 | 57.39173 | 37905 ft | 517 kts | 105° |
| 2026-04-26 07:55 | 53.85336 | 57.50910 | 37894 ft | 517 kts | 105° |
| 2026-04-26 07:56 | 53.83597 | 57.62693 | 37901 ft | 517 kts | 105° |
| 2026-04-26 07:56 | 53.81844 | 57.74465 | 37884 ft | 517 kts | 106° |
| 2026-04-26 07:57 | 53.80084 | 57.86194 | 37881 ft | 517 kts | 106° |
| 2026-04-26 07:57 | 53.78320 | 57.97863 | 37881 ft | 516 kts | 106° |
| 2026-04-26 07:58 | 53.76533 | 58.09602 | 37889 ft | 515 kts | 106° |
| 2026-04-26 07:58 | 53.74259 | 58.21004 | 37893 ft | 514 kts | 112° |
| 2026-04-26 07:59 | 53.71747 | 58.32178 | 37894 ft | 513 kts | 112° |
| 2026-04-26 07:59 | 53.69214 | 58.43393 | 37899 ft | 513 kts | 112° |
| 2026-04-26 08:00 | 53.66670 | 58.54602 | 37900 ft | 512 kts | 112° |
| 2026-04-26 08:00 | 53.64121 | 58.65780 | 37917 ft | 511 kts | 113° |
| 2026-04-26 08:01 | 53.61578 | 58.76873 | 37926 ft | 510 kts | 113° |
| 2026-04-26 08:01 | 53.59022 | 58.87967 | 37925 ft | 510 kts | 113° |
| 2026-04-26 08:02 | 53.56448 | 58.99081 | 37928 ft | 509 kts | 113° |
| 2026-04-26 08:02 | 53.53890 | 59.10070 | 37925 ft | 510 kts | 113° |
| 2026-04-26 08:03 | 53.51304 | 59.21126 | 37928 ft | 510 kts | 113° |
| 2026-04-26 08:03 | 53.48692 | 59.32227 | 37927 ft | 510 kts | 113° |
| 2026-04-26 08:04 | 53.46083 | 59.43265 | 37924 ft | 510 kts | 113° |
| 2026-04-26 08:04 | 53.43468 | 59.54271 | 37918 ft | 510 kts | 113° |
| 2026-04-26 08:05 | 53.41240 | 59.65536 | 37917 ft | 512 kts | 102° |
| 2026-04-26 08:05 | 53.40783 | 59.77494 | 37911 ft | 516 kts | 91° |
| 2026-04-26 08:06 | 53.40822 | 59.89446 | 37912 ft | 515 kts | 91° |
| 2026-04-26 08:06 | 53.40836 | 60.01461 | 37913 ft | 514 kts | 91° |
| 2026-04-26 08:07 | 53.40827 | 60.13442 | 37907 ft | 515 kts | 91° |
| 2026-04-26 08:07 | 53.40800 | 60.25372 | 37908 ft | 515 kts | 91° |
| 2026-04-26 08:08 | 53.40757 | 60.37389 | 37916 ft | 517 kts | 91° |
| 2026-04-26 08:08 | 53.40701 | 60.49440 | 37919 ft | 517 kts | 91° |
| 2026-04-26 08:09 | 53.40631 | 60.61448 | 37923 ft | 518 kts | 91° |
| 2026-04-26 08:09 | 53.40550 | 60.73484 | 37920 ft | 518 kts | 92° |
| 2026-04-26 08:10 | 53.40456 | 60.85468 | 37921 ft | 519 kts | 92° |
| 2026-04-26 08:10 | 53.40348 | 60.97537 | 37927 ft | 519 kts | 92° |
| 2026-04-26 08:11 | 53.40229 | 61.09612 | 37912 ft | 519 kts | 92° |
| 2026-04-26 08:11 | 53.39691 | 61.21554 | 37925 ft | 517 kts | 99° |
| 2026-04-26 08:12 | 53.38743 | 61.33464 | 37922 ft | 517 kts | 99° |
| 2026-04-26 08:12 | 53.37772 | 61.45433 | 37918 ft | 518 kts | 99° |
| 2026-04-26 08:13 | 53.36800 | 61.57270 | 37920 ft | 518 kts | 99° |
| 2026-04-26 08:13 | 53.35808 | 61.69191 | 37908 ft | 519 kts | 100° |
| 2026-04-26 08:14 | 53.34807 | 61.81073 | 37921 ft | 519 kts | 100° |
| 2026-04-26 08:14 | 53.33788 | 61.93022 | 37913 ft | 519 kts | 100° |
| 2026-04-26 08:15 | 53.32761 | 62.04928 | 37928 ft | 520 kts | 100° |
| 2026-04-26 08:15 | 53.31720 | 62.16840 | 37926 ft | 519 kts | 100° |
| 2026-04-26 08:16 | 53.30669 | 62.28726 | 37919 ft | 519 kts | 100° |
| 2026-04-26 08:16 | 53.29612 | 62.40549 | 37922 ft | 518 kts | 100° |
| 2026-04-26 08:17 | 53.28537 | 62.52440 | 37922 ft | 517 kts | 100° |
| 2026-04-26 08:17 | 53.27461 | 62.64288 | 37920 ft | 519 kts | 100° |
| 2026-04-26 08:18 | 53.26369 | 62.76197 | 37917 ft | 517 kts | 101° |
| 2026-04-26 08:18 | 53.25276 | 62.87965 | 37924 ft | 517 kts | 101° |
| 2026-04-26 08:19 | 53.24169 | 62.99754 | 37926 ft | 516 kts | 101° |
| 2026-04-26 08:19 | 53.23052 | 63.11527 | 37925 ft | 515 kts | 101° |
| 2026-04-26 08:20 | 53.21919 | 63.23338 | 37926 ft | 515 kts | 101° |
| 2026-04-26 08:20 | 53.20780 | 63.35075 | 37923 ft | 515 kts | 101° |
| 2026-04-26 08:21 | 53.19631 | 63.46795 | 37926 ft | 515 kts | 101° |
| 2026-04-26 08:21 | 53.18136 | 63.58462 | 37929 ft | 511 kts | 111° |
| 2026-04-26 08:22 | 53.15707 | 63.69526 | 37932 ft | 510 kts | 114° |
| 2026-04-26 08:22 | 53.13217 | 63.80571 | 37927 ft | 509 kts | 114° |
| 2026-04-26 08:23 | 53.10727 | 63.91549 | 37927 ft | 509 kts | 114° |
| 2026-04-26 08:23 | 53.08228 | 64.02506 | 37919 ft | 508 kts | 114° |
| 2026-04-26 08:24 | 53.05719 | 64.13444 | 37922 ft | 508 kts | 114° |
| 2026-04-26 08:24 | 53.03196 | 64.24387 | 37923 ft | 508 kts | 114° |
| 2026-04-26 08:25 | 53.00646 | 64.35384 | 37917 ft | 509 kts | 114° |
| 2026-04-26 08:25 | 52.98100 | 64.46314 | 37924 ft | 508 kts | 114° |
| 2026-04-26 08:26 | 52.95536 | 64.57260 | 37932 ft | 509 kts | 114° |
| 2026-04-26 08:26 | 52.92977 | 64.68128 | 37926 ft | 509 kts | 115° |
| 2026-04-26 08:27 | 52.90397 | 64.79037 | 37929 ft | 508 kts | 115° |
| 2026-04-26 08:27 | 52.87811 | 64.89910 | 37933 ft | 508 kts | 115° |
| 2026-04-26 08:28 | 52.85213 | 65.00784 | 37934 ft | 508 kts | 115° |
| 2026-04-26 08:28 | 52.82601 | 65.11659 | 37931 ft | 508 kts | 115° |
| 2026-04-26 08:29 | 52.79972 | 65.22540 | 37928 ft | 509 kts | 116° |
| 2026-04-26 08:29 | 52.77261 | 65.33244 | 37927 ft | 506 kts | 117° |
| 2026-04-26 08:30 | 52.74528 | 65.43954 | 37925 ft | 507 kts | 116° |
| 2026-04-26 08:30 | 52.71911 | 65.54644 | 37921 ft | 508 kts | 115° |
| 2026-04-26 08:31 | 52.69263 | 65.65461 | 37926 ft | 508 kts | 116° |
| 2026-04-26 08:31 | 52.66609 | 65.76238 | 37917 ft | 508 kts | 116° |
| 2026-04-26 08:32 | 52.63941 | 65.87013 | 37919 ft | 509 kts | 116° |
| 2026-04-26 08:32 | 52.61280 | 65.97702 | 37917 ft | 509 kts | 116° |
| 2026-04-26 08:33 | 52.58571 | 66.08535 | 37916 ft | 508 kts | 117° |
| 2026-04-26 08:33 | 52.55878 | 66.19249 | 37914 ft | 507 kts | 117° |
| 2026-04-26 08:34 | 52.53189 | 66.29892 | 37911 ft | 507 kts | 117° |
| 2026-04-26 08:34 | 52.50479 | 66.40569 | 37913 ft | 507 kts | 117° |
| 2026-04-26 08:35 | 52.47767 | 66.51200 | 37912 ft | 506 kts | 117° |
| 2026-04-26 08:35 | 52.45052 | 66.61797 | 37915 ft | 505 kts | 117° |
| 2026-04-26 08:36 | 52.42317 | 66.72418 | 37905 ft | 504 kts | 117° |
| 2026-04-26 08:36 | 52.39555 | 66.82918 | 37909 ft | 503 kts | 118° |
| 2026-04-26 08:37 | 52.36773 | 66.93340 | 37909 ft | 503 kts | 118° |
| 2026-04-26 08:37 | 52.33969 | 67.03800 | 37907 ft | 502 kts | 118° |
| 2026-04-26 08:38 | 52.31174 | 67.14188 | 37901 ft | 502 kts | 118° |
| 2026-04-26 08:38 | 52.28362 | 67.24593 | 37902 ft | 502 kts | 118° |
| 2026-04-26 08:39 | 52.25532 | 67.35020 | 37900 ft | 503 kts | 118° |
| 2026-04-26 08:39 | 52.22674 | 67.45503 | 37892 ft | 503 kts | 118° |
| 2026-04-26 08:40 | 52.19843 | 67.55842 | 37889 ft | 502 kts | 118° |
| 2026-04-26 08:40 | 52.16990 | 67.66213 | 37888 ft | 503 kts | 119° |
| 2026-04-26 08:41 | 52.14131 | 67.76560 | 37886 ft | 500 kts | 120° |
| 2026-04-26 08:41 | 52.11266 | 67.86882 | 37881 ft | 501 kts | 120° |
| 2026-04-26 08:42 | 52.08405 | 67.97146 | 37884 ft | 501 kts | 119° |
| 2026-04-26 08:42 | 52.05528 | 68.07419 | 37887 ft | 498 kts | 119° |
| 2026-04-26 08:43 | 52.02658 | 68.17622 | 37890 ft | 501 kts | 119° |
| 2026-04-26 08:43 | 51.99772 | 68.27838 | 37896 ft | 502 kts | 119° |
| 2026-04-26 08:44 | 51.96838 | 68.38163 | 37895 ft | 501 kts | 120° |
| 2026-04-26 08:44 | 51.93761 | 68.48244 | 37896 ft | 500 kts | 121° |
| 2026-04-26 08:45 | 51.90673 | 68.58256 | 37908 ft | 499 kts | 121° |
| 2026-04-26 08:45 | 51.87562 | 68.68329 | 37801 ft | 495 kts | 122° |
| 2026-04-26 08:46 | 51.86021 | 68.73309 | 37119 ft | 498 kts | 122° |
| 2026-04-26 08:46 | 51.84472 | 68.78294 | 36215 ft | 505 kts | 122° |
| 2026-04-26 08:46 | 51.82901 | 68.83346 | 35323 ft | 511 kts | 122° |
| 2026-04-26 08:46 | 51.81271 | 68.88580 | 34397 ft | 516 kts | 122° |
| 2026-04-26 08:47 | 51.79655 | 68.93759 | 33465 ft | 520 kts | 122° |
| 2026-04-26 08:47 | 51.78046 | 68.98911 | 32565 ft | 523 kts | 122° |
| 2026-04-26 08:47 | 51.76405 | 69.04152 | 31598 ft | 527 kts | 122° |
| 2026-04-26 08:47 | 51.74744 | 69.09447 | 30633 ft | 527 kts | 122° |
| 2026-04-26 08:48 | 51.73119 | 69.14623 | 30028 ft | 520 kts | 122° |
| 2026-04-26 08:48 | 51.71489 | 69.19807 | 29487 ft | 514 kts | 123° |
| 2026-04-26 08:48 | 51.69873 | 69.24929 | 28894 ft | 509 kts | 123° |
| 2026-04-26 08:48 | 51.68290 | 69.29936 | 28210 ft | 505 kts | 123° |
| 2026-04-26 08:49 | 51.66718 | 69.34905 | 27460 ft | 491 kts | 123° |
| 2026-04-26 08:49 | 51.65207 | 69.39679 | 26935 ft | 471 kts | 123° |
| 2026-04-26 08:49 | 51.63756 | 69.44250 | 26378 ft | 454 kts | 124° |
| 2026-04-26 08:49 | 51.62336 | 69.48714 | 25799 ft | 438 kts | 124° |
| 2026-04-26 08:50 | 51.60945 | 69.53057 | 25303 ft | 447 kts | 124° |
| 2026-04-26 08:50 | 51.59510 | 69.57507 | 24671 ft | 457 kts | 124° |
| 2026-04-26 08:50 | 51.58064 | 69.62012 | 24034 ft | 455 kts | 124° |
| 2026-04-26 08:50 | 51.56609 | 69.66549 | 23398 ft | 451 kts | 125° |
| 2026-04-26 08:51 | 51.53759 | 69.75401 | 22156 ft | 444 kts | 124° |
| 2026-04-26 08:51 | 51.52352 | 69.79758 | 21556 ft | 440 kts | 124° |
| 2026-04-26 08:51 | 51.50962 | 69.84055 | 20960 ft | 436 kts | 124° |
| 2026-04-26 08:52 | 51.49592 | 69.88362 | 20343 ft | 435 kts | 120° |
| 2026-04-26 08:52 | 51.48591 | 69.92950 | 19946 ft | 434 kts | 109° |
| 2026-04-26 08:52 | 51.48093 | 69.97656 | 19895 ft | 430 kts | 102° |
| 2026-04-26 08:52 | 51.47737 | 70.02474 | 19895 ft | 439 kts | 101° |
| 2026-04-26 08:53 | 51.47389 | 70.07313 | 19884 ft | 435 kts | 102° |
| 2026-04-26 08:53 | 51.47043 | 70.12076 | 19849 ft | 437 kts | 102° |
| 2026-04-26 08:53 | 51.46682 | 70.16983 | 19364 ft | 443 kts | 102° |
| 2026-04-26 08:53 | 51.46323 | 70.21833 | 18916 ft | 435 kts | 102° |
| 2026-04-26 08:54 | 51.45975 | 70.26537 | 18638 ft | 428 kts | 101° |
| 2026-04-26 08:54 | 51.45618 | 70.31286 | 18358 ft | 430 kts | 103° |
| 2026-04-26 08:54 | 51.45264 | 70.35985 | 18129 ft | 427 kts | 103° |
| 2026-04-26 08:54 | 51.44907 | 70.40681 | 17922 ft | 425 kts | 102° |
| 2026-04-26 08:55 | 51.44545 | 70.45412 | 17674 ft | 425 kts | 103° |
| 2026-04-26 08:55 | 51.44188 | 70.50076 | 17440 ft | 422 kts | 103° |
| 2026-04-26 08:55 | 51.43828 | 70.54721 | 17219 ft | 423 kts | 104° |
| 2026-04-26 08:55 | 51.43469 | 70.59359 | 16986 ft | 419 kts | 104° |
| 2026-04-26 08:56 | 51.43108 | 70.63995 | 16863 ft | 415 kts | 105° |
| 2026-04-26 08:56 | 51.42753 | 70.68545 | 16864 ft | 412 kts | 106° |
| 2026-04-26 08:56 | 51.42394 | 70.73074 | 16826 ft | 414 kts | 107° |
| 2026-04-26 08:56 | 51.42033 | 70.77621 | 16864 ft | 413 kts | 107° |
| 2026-04-26 08:57 | 51.41668 | 70.82173 | 16854 ft | 415 kts | 107° |
| 2026-04-26 08:57 | 51.41307 | 70.86724 | 16844 ft | 407 kts | 108° |
| 2026-04-26 08:57 | 51.40951 | 70.91159 | 16841 ft | 405 kts | 108° |
| 2026-04-26 08:57 | 51.40591 | 70.95624 | 16807 ft | 398 kts | 108° |
| 2026-04-26 08:58 | 51.40248 | 70.99925 | 16458 ft | 389 kts | 109° |
| 2026-04-26 08:58 | 51.39895 | 71.04222 | 15666 ft | 393 kts | 109° |
| 2026-04-26 08:58 | 51.39535 | 71.08556 | 14800 ft | 399 kts | 109° |
| 2026-04-26 08:58 | 51.39172 | 71.12941 | 14243 ft | 395 kts | 109° |
| 2026-04-26 08:59 | 51.38822 | 71.17207 | 13802 ft | 388 kts | 109° |
| 2026-04-26 08:59 | 51.38465 | 71.21498 | 13170 ft | 388 kts | 108° |
| 2026-04-26 08:59 | 51.38108 | 71.25731 | 12481 ft | 389 kts | 107° |
| 2026-04-26 08:59 | 51.37751 | 71.29996 | 12153 ft | 377 kts | 106° |
| 2026-04-26 09:00 | 51.37421 | 71.33984 | 11761 ft | 358 kts | 106° |
| 2026-04-26 09:00 | 51.37099 | 71.37836 | 11430 ft | 341 kts | 106° |
| 2026-04-26 09:00 | 51.36794 | 71.41471 | 11205 ft | 322 kts | 105° |
| 2026-04-26 09:00 | 51.36504 | 71.44893 | 11043 ft | 303 kts | 105° |
| 2026-04-26 09:01 | 51.36219 | 71.48177 | 10617 ft | 297 kts | 105° |
| 2026-04-26 09:01 | 51.35897 | 71.51438 | 10047 ft | 294 kts | 111° |
| 2026-04-26 09:01 | 51.35041 | 71.54280 | 9345 ft | 284 kts | 135° |
| 2026-04-26 09:01 | 51.33758 | 71.56611 | 8777 ft | 276 kts | 141° |
| 2026-04-26 09:02 | 51.32422 | 71.58752 | 8275 ft | 272 kts | 142° |
| 2026-04-26 09:02 | 51.31084 | 71.60834 | 7777 ft | 269 kts | 143° |
| 2026-04-26 09:02 | 51.29773 | 71.62869 | 7472 ft | 261 kts | 143° |
| 2026-04-26 09:02 | 51.28477 | 71.64870 | 6987 ft | 260 kts | 144° |
| 2026-04-26 09:03 | 51.27188 | 71.66900 | 6427 ft | 262 kts | 144° |
| 2026-04-26 09:03 | 51.25911 | 71.68973 | 5922 ft | 261 kts | 144° |
| 2026-04-26 09:03 | 51.24646 | 71.71016 | 5456 ft | 260 kts | 143° |
| 2026-04-26 09:03 | 51.23310 | 71.72965 | 4921 ft | 256 kts | 156° |
| 2026-04-26 09:04 | 51.21690 | 71.73847 | 4420 ft | 243 kts | 185° |
| 2026-04-26 09:04 | 51.20087 | 71.73480 | 4119 ft | 226 kts | 210° |
| 2026-04-26 09:04 | 51.18806 | 71.72257 | 4076 ft | 208 kts | 223° |
| 2026-04-26 09:04 | 51.17732 | 71.70837 | 4034 ft | 194 kts | 227° |
| 2026-04-26 09:05 | 51.16777 | 71.69390 | 4032 ft | 180 kts | 230° |
| 2026-04-26 09:05 | 51.15928 | 71.68060 | 3998 ft | 163 kts | 231° |
| 2026-04-26 09:05 | 51.15298 | 71.67069 | 3911 ft | 151 kts | 231° |
| 2026-04-26 09:05 | 51.14584 | 71.65942 | 3861 ft | 138 kts | 231° |
| 2026-04-26 09:06 | 51.13925 | 71.64909 | 3733 ft | 133 kts | 232° |
| 2026-04-26 09:06 | 51.13262 | 71.63858 | 3770 ft | 134 kts | 232° |
| 2026-04-26 09:06 | 51.12615 | 71.62846 | 3759 ft | 132 kts | 232° |
| 2026-04-26 09:06 | 51.11956 | 71.61816 | 3567 ft | 132 kts | 232° |
| 2026-04-26 09:07 | 51.11309 | 71.60789 | 3365 ft | 134 kts | 233° |
| 2026-04-26 09:07 | 51.10643 | 71.59758 | 3176 ft | 133 kts | 232° |
| 2026-04-26 09:07 | 51.09990 | 71.58713 | 3014 ft | 137 kts | 232° |
| 2026-04-26 09:07 | 51.09303 | 71.57658 | 2808 ft | 138 kts | 232° |
| 2026-04-26 09:08 | 51.08610 | 71.56547 | 2640 ft | 143 kts | 231° |
| 2026-04-26 09:08 | 51.07871 | 71.55434 | 2458 ft | 149 kts | 230° |
| 2026-04-26 09:08 | 51.07152 | 71.54257 | 2297 ft | 149 kts | 230° |
| 2026-04-26 09:08 | 51.06397 | 71.53116 | 2108 ft | 150 kts | 229° |
| 2026-04-26 09:09 | 51.05660 | 71.51932 | 1891 ft | 150 kts | 230° |
| 2026-04-26 09:09 | 51.04922 | 71.50806 | 1687 ft | 148 kts | 227° |
| 2026-04-26 09:09 | 51.04194 | 71.49644 | 1472 ft | 148 kts | 228° |
| 2026-04-26 09:09 | 51.03463 | 71.48504 | 1264 ft | 147 kts | 227° |
| 2026-04-26 09:10 | 51.02753 | 71.47407 | 1193 ft | 134 kts | 228° |
| 2026-04-26 09:10 | 51.02151 | 71.46450 | 1182 ft | 109 kts | 225° |
| 2026-04-26 09:10 | 51.01674 | 71.45699 | 1182 ft | 85 kts | 226° |
| 2026-04-26 09:10 | 51.01328 | 71.45171 | 1182 ft | 45 kts | 225° |
| 2026-04-26 09:11 | 51.01179 | 71.44923 | 1182 ft | 17 kts | 240° |
| 2026-04-26 09:11 | 51.01214 | 71.44775 | 1182 ft | 14 kts | 315° |
| 2026-04-26 09:11 | 51.01297 | 71.44709 | 1182 ft | 12 kts | 10° |
| 2026-04-26 09:11 | 51.01370 | 71.44775 | 1182 ft | 12 kts | 43° |
| 2026-04-26 09:12 | 51.01432 | 71.44871 | 1182 ft | 12 kts | 45° |
| 2026-04-26 09:12 | 51.01492 | 71.44966 | 1182 ft | 12 kts | 45° |
| 2026-04-26 09:12 | 51.01561 | 71.45073 | 1182 ft | 18 kts | 43° |
| 2026-04-26 09:12 | 51.01676 | 71.45251 | 1182 ft | 24 kts | 45° |
| 2026-04-26 09:13 | 51.01800 | 71.45445 | 1182 ft | 25 kts | 45° |
| 2026-04-26 09:13 | 51.01926 | 71.45639 | 1182 ft | 24 kts | 44° |
| 2026-04-26 09:13 | 51.02046 | 71.45828 | 1182 ft | 24 kts | 45° |
| 2026-04-26 09:13 | 51.02163 | 71.46013 | 1182 ft | 23 kts | 43° |
| 2026-04-26 09:14 | 51.02277 | 71.46183 | 1182 ft | 22 kts | 42° |
| 2026-04-26 09:14 | 51.02384 | 71.46347 | 1182 ft | 21 kts | 50° |
| 2026-04-26 09:14 | 51.02481 | 71.46507 | 1182 ft | 18 kts | 44° |
| 2026-04-26 09:14 | 51.02575 | 71.46654 | 1182 ft | 16 kts | 45° |
| 2026-04-26 09:15 | 51.02644 | 71.46702 | 1182 ft | 9 kts | 338° |
| 2026-04-26 09:15 | 51.02695 | 71.46637 | 1182 ft | 9 kts | 313° |
| 2026-04-26 09:15 | 51.02738 | 71.46556 | 1182 ft | 9 kts | 312° |
| 2026-04-26 09:15 | 51.02775 | 71.46497 | 1182 ft | 3 kts | 316° |
| 2026-04-26 09:16 | 51.02779 | 71.46491 | 1182 ft | 0 kts | 317° |